sensor_id;sensor_type;location;lat;lon;timestamp;P1;durP1;ratioP1;P2;durP2;ratioP2
4857;SDS011;58975;51.978;8.472;2022-07-05T00:00:11;2.95;;;0.90;;
4857;SDS011;58975;51.978;8.472;2022-07-05T00:05:08;2.10;;;1.10;;
4857;SDS011;58975;51.978;8.472;2022-07-05T00:10:04;3.03;;;1.40;;
4857;SDS011;58975;51.978;8.472;2022-07-05T00:15:01;1.63;;;0.88;;
4857;SDS011;58975;51.978;8.472;2022-07-05T00:19:58;1.43;;;0.70;;
4857;SDS011;58975;51.978;8.472;2022-07-05T00:24:55;2.35;;;1.00;;
4857;SDS011;58975;51.978;8.472;2022-07-05T00:29:51;1.10;;;0.80;;
4857;SDS011;58975;51.978;8.472;2022-07-05T00:34:48;1.90;;;1.00;;
4857;SDS011;58975;51.978;8.472;2022-07-05T00:39:44;3.53;;;1.02;;
4857;SDS011;58975;51.978;8.472;2022-07-05T00:44:41;6.28;;;0.73;;
4857;SDS011;58975;51.978;8.472;2022-07-05T00:49:39;2.53;;;1.27;;
4857;SDS011;58975;51.978;8.472;2022-07-05T00:54:37;3.45;;;1.10;;
4857;SDS011;58975;51.978;8.472;2022-07-05T00:59:36;2.15;;;1.02;;
4857;SDS011;58975;51.978;8.472;2022-07-05T01:04:32;1.27;;;1.10;;
4857;SDS011;58975;51.978;8.472;2022-07-05T01:09:28;1.30;;;1.20;;
4857;SDS011;58975;51.978;8.472;2022-07-05T01:14:25;1.60;;;1.50;;
4857;SDS011;58975;51.978;8.472;2022-07-05T01:19:21;3.55;;;1.52;;
4857;SDS011;58975;51.978;8.472;2022-07-05T01:24:19;2.25;;;1.15;;
4857;SDS011;58975;51.978;8.472;2022-07-05T01:29:16;4.60;;;1.57;;
4857;SDS011;58975;51.978;8.472;2022-07-05T01:34:13;2.47;;;1.30;;
4857;SDS011;58975;51.978;8.472;2022-07-05T01:39:10;1.38;;;0.95;;
4857;SDS011;58975;51.978;8.472;2022-07-05T01:44:06;1.50;;;1.08;;
4857;SDS011;58975;51.978;8.472;2022-07-05T01:49:04;2.25;;;1.73;;
4857;SDS011;58975;51.978;8.472;2022-07-05T01:54:04;2.13;;;1.50;;
4857;SDS011;58975;51.978;8.472;2022-07-05T01:59:01;2.78;;;1.20;;
4857;SDS011;58975;51.978;8.472;2022-07-05T02:03:57;3.53;;;1.55;;
4857;SDS011;58975;51.978;8.472;2022-07-05T02:08:54;4.78;;;1.40;;
4857;SDS011;58975;51.978;8.472;2022-07-05T02:13:51;3.95;;;1.30;;
4857;SDS011;58975;51.978;8.472;2022-07-05T02:18:48;2.50;;;1.60;;
4857;SDS011;58975;51.978;8.472;2022-07-05T02:23:44;4.00;;;1.58;;
4857;SDS011;58975;51.978;8.472;2022-07-05T02:28:41;1.35;;;1.00;;
4857;SDS011;58975;51.978;8.472;2022-07-05T02:33:38;1.50;;;1.30;;
4857;SDS011;58975;51.978;8.472;2022-07-05T02:38:35;4.22;;;1.35;;
4857;SDS011;58975;51.978;8.472;2022-07-05T02:43:32;2.08;;;1.48;;
4857;SDS011;58975;51.978;8.472;2022-07-05T02:48:29;1.40;;;1.30;;
4857;SDS011;58975;51.978;8.472;2022-07-05T02:53:26;1.52;;;1.13;;
4857;SDS011;58975;51.978;8.472;2022-07-05T02:58:23;2.38;;;1.23;;
4857;SDS011;58975;51.978;8.472;2022-07-05T03:03:19;2.55;;;1.17;;
4857;SDS011;58975;51.978;8.472;2022-07-05T03:08:16;5.72;;;1.50;;
4857;SDS011;58975;51.978;8.472;2022-07-05T03:13:12;2.35;;;1.60;;
4857;SDS011;58975;51.978;8.472;2022-07-05T03:18:09;4.10;;;1.40;;
4857;SDS011;58975;51.978;8.472;2022-07-05T03:23:06;4.38;;;1.70;;
4857;SDS011;58975;51.978;8.472;2022-07-05T03:28:02;1.65;;;1.20;;
4857;SDS011;58975;51.978;8.472;2022-07-05T03:32:59;1.13;;;1.02;;
4857;SDS011;58975;51.978;8.472;2022-07-05T03:37:56;1.65;;;1.38;;
4857;SDS011;58975;51.978;8.472;2022-07-05T03:42:53;2.67;;;1.67;;
4857;SDS011;58975;51.978;8.472;2022-07-05T03:47:49;1.90;;;1.40;;
4857;SDS011;58975;51.978;8.472;2022-07-05T03:52:46;4.53;;;1.85;;
4857;SDS011;58975;51.978;8.472;2022-07-05T03:57:42;3.45;;;1.60;;
4857;SDS011;58975;51.978;8.472;2022-07-05T04:02:39;1.77;;;1.20;;
4857;SDS011;58975;51.978;8.472;2022-07-05T04:07:46;3.65;;;1.27;;
4857;SDS011;58975;51.978;8.472;2022-07-05T04:12:50;4.82;;;1.35;;
4857;SDS011;58975;51.978;8.472;2022-07-05T04:22:46;4.32;;;1.90;;
4857;SDS011;58975;51.978;8.472;2022-07-05T04:27:47;3.88;;;1.77;;
4857;SDS011;58975;51.978;8.472;2022-07-05T04:32:46;1.90;;;1.40;;
4857;SDS011;58975;51.978;8.472;2022-07-05T04:37:43;3.10;;;2.00;;
4857;SDS011;58975;51.978;8.472;2022-07-05T04:42:40;3.83;;;1.63;;
4857;SDS011;58975;51.978;8.472;2022-07-05T04:47:37;3.13;;;2.10;;
4857;SDS011;58975;51.978;8.472;2022-07-05T04:52:34;4.13;;;2.00;;
4857;SDS011;58975;51.978;8.472;2022-07-05T04:57:40;1.88;;;1.63;;
4857;SDS011;58975;51.978;8.472;2022-07-05T05:02:37;7.13;;;1.90;;
4857;SDS011;58975;51.978;8.472;2022-07-05T05:07:34;4.43;;;1.77;;
4857;SDS011;58975;51.978;8.472;2022-07-05T05:12:33;3.20;;;1.85;;
4857;SDS011;58975;51.978;8.472;2022-07-05T05:22:32;2.97;;;1.98;;
4857;SDS011;58975;51.978;8.472;2022-07-05T05:27:29;5.07;;;1.85;;
4857;SDS011;58975;51.978;8.472;2022-07-05T05:32:25;2.00;;;1.90;;
4857;SDS011;58975;51.978;8.472;2022-07-05T05:37:21;4.68;;;2.20;;
4857;SDS011;58975;51.978;8.472;2022-07-05T05:42:19;3.88;;;2.17;;
4857;SDS011;58975;51.978;8.472;2022-07-05T05:47:16;16.23;;;2.10;;
4857;SDS011;58975;51.978;8.472;2022-07-05T05:52:12;3.47;;;1.90;;
4857;SDS011;58975;51.978;8.472;2022-07-05T05:57:09;3.53;;;2.22;;
4857;SDS011;58975;51.978;8.472;2022-07-05T06:02:05;3.72;;;1.83;;
4857;SDS011;58975;51.978;8.472;2022-07-05T06:07:02;5.88;;;1.10;;
4857;SDS011;58975;51.978;8.472;2022-07-05T06:11:59;2.53;;;1.05;;
4857;SDS011;58975;51.978;8.472;2022-07-05T06:16:55;4.53;;;1.30;;
4857;SDS011;58975;51.978;8.472;2022-07-05T06:21:52;4.10;;;1.33;;
4857;SDS011;58975;51.978;8.472;2022-07-05T06:26:55;2.33;;;0.90;;
4857;SDS011;58975;51.978;8.472;2022-07-05T06:31:51;3.33;;;1.15;;
4857;SDS011;58975;51.978;8.472;2022-07-05T06:36:48;4.50;;;1.48;;
4857;SDS011;58975;51.978;8.472;2022-07-05T06:41:44;0.90;;;0.77;;
4857;SDS011;58975;51.978;8.472;2022-07-05T06:46:40;2.28;;;0.85;;
4857;SDS011;58975;51.978;8.472;2022-07-05T06:51:37;1.85;;;0.70;;
4857;SDS011;58975;51.978;8.472;2022-07-05T06:56:33;3.95;;;1.50;;
4857;SDS011;58975;51.978;8.472;2022-07-05T07:01:50;0.75;;;0.50;;
4857;SDS011;58975;51.978;8.472;2022-07-05T07:07:06;1.50;;;0.63;;
4857;SDS011;58975;51.978;8.472;2022-07-05T07:12:23;3.03;;;0.60;;
4857;SDS011;58975;51.978;8.472;2022-07-05T07:17:19;5.68;;;0.75;;
4857;SDS011;58975;51.978;8.472;2022-07-05T07:22:16;2.78;;;0.80;;
4857;SDS011;58975;51.978;8.472;2022-07-05T07:27:12;5.25;;;1.10;;
4857;SDS011;58975;51.978;8.472;2022-07-05T07:32:09;1.45;;;0.90;;
4857;SDS011;58975;51.978;8.472;2022-07-05T07:37:05;5.00;;;1.00;;
4857;SDS011;58975;51.978;8.472;2022-07-05T07:42:02;1.98;;;0.98;;
4857;SDS011;58975;51.978;8.472;2022-07-05T07:46:59;3.38;;;1.05;;
4857;SDS011;58975;51.978;8.472;2022-07-05T07:51:55;6.60;;;0.88;;
4857;SDS011;58975;51.978;8.472;2022-07-05T07:56:55;2.70;;;0.63;;
4857;SDS011;58975;51.978;8.472;2022-07-05T08:01:52;3.83;;;0.52;;
4857;SDS011;58975;51.978;8.472;2022-07-05T08:06:49;3.40;;;1.00;;
4857;SDS011;58975;51.978;8.472;2022-07-05T08:11:46;2.25;;;0.68;;
4857;SDS011;58975;51.978;8.472;2022-07-05T08:16:43;0.20;;;0.20;;
4857;SDS011;58975;51.978;8.472;2022-07-05T08:21:46;1.38;;;0.70;;
4857;SDS011;58975;51.978;8.472;2022-07-05T08:26:44;1.88;;;0.75;;
4857;SDS011;58975;51.978;8.472;2022-07-05T08:31:42;0.30;;;0.30;;
4857;SDS011;58975;51.978;8.472;2022-07-05T08:36:40;1.58;;;0.50;;
4857;SDS011;58975;51.978;8.472;2022-07-05T08:46:39;2.28;;;0.73;;
4857;SDS011;58975;51.978;8.472;2022-07-05T08:51:37;1.80;;;0.60;;
4857;SDS011;58975;51.978;8.472;2022-07-05T08:56:35;1.77;;;0.80;;
4857;SDS011;58975;51.978;8.472;2022-07-05T09:01:52;1.35;;;0.60;;
4857;SDS011;58975;51.978;8.472;2022-07-05T09:06:49;2.03;;;0.50;;
4857;SDS011;58975;51.978;8.472;2022-07-05T09:11:48;0.63;;;0.52;;
4857;SDS011;58975;51.978;8.472;2022-07-05T09:17:04;1.50;;;0.60;;
4857;SDS011;58975;51.978;8.472;2022-07-05T09:22:02;1.60;;;0.60;;
4857;SDS011;58975;51.978;8.472;2022-07-05T09:27:02;1.20;;;0.60;;
4857;SDS011;58975;51.978;8.472;2022-07-05T09:32:00;1.88;;;0.70;;
4857;SDS011;58975;51.978;8.472;2022-07-05T09:37:00;0.52;;;0.40;;
4857;SDS011;58975;51.978;8.472;2022-07-05T09:42:19;0.75;;;0.65;;
4857;SDS011;58975;51.978;8.472;2022-07-05T09:47:22;3.33;;;0.70;;
4857;SDS011;58975;51.978;8.472;2022-07-05T09:52:39;2.40;;;0.50;;
4857;SDS011;58975;51.978;8.472;2022-07-05T09:57:40;1.63;;;0.70;;
4857;SDS011;58975;51.978;8.472;2022-07-05T10:07:51;1.10;;;0.60;;
4857;SDS011;58975;51.978;8.472;2022-07-05T10:12:49;0.90;;;0.57;;
4857;SDS011;58975;51.978;8.472;2022-07-05T10:17:50;0.60;;;0.60;;
4857;SDS011;58975;51.978;8.472;2022-07-05T10:22:51;1.10;;;0.50;;
4857;SDS011;58975;51.978;8.472;2022-07-05T10:27:48;1.80;;;0.60;;
4857;SDS011;58975;51.978;8.472;2022-07-05T10:32:50;3.20;;;0.52;;
4857;SDS011;58975;51.978;8.472;2022-07-05T10:37:47;0.90;;;0.60;;
4857;SDS011;58975;51.978;8.472;2022-07-05T10:42:51;1.25;;;0.80;;
4857;SDS011;58975;51.978;8.472;2022-07-05T10:53:07;1.05;;;0.50;;
4857;SDS011;58975;51.978;8.472;2022-07-05T11:13:53;1.27;;;0.80;;
4857;SDS011;58975;51.978;8.472;2022-07-05T11:18:52;1.45;;;0.45;;
4857;SDS011;58975;51.978;8.472;2022-07-05T11:34:45;1.65;;;0.60;;
4857;SDS011;58975;51.978;8.472;2022-07-05T11:39:43;0.50;;;0.50;;
4857;SDS011;58975;51.978;8.472;2022-07-05T11:44:41;3.15;;;0.80;;
4857;SDS011;58975;51.978;8.472;2022-07-05T11:49:56;2.30;;;0.75;;
4857;SDS011;58975;51.978;8.472;2022-07-05T11:54:53;1.48;;;0.60;;
4857;SDS011;58975;51.978;8.472;2022-07-05T11:59:50;1.45;;;0.60;;
4857;SDS011;58975;51.978;8.472;2022-07-05T12:04:53;1.03;;;0.50;;
4857;SDS011;58975;51.978;8.472;2022-07-05T12:09:51;1.13;;;0.52;;
4857;SDS011;58975;51.978;8.472;2022-07-05T12:15:07;0.95;;;0.60;;
4857;SDS011;58975;51.978;8.472;2022-07-05T12:20:06;4.65;;;0.75;;
4857;SDS011;58975;51.978;8.472;2022-07-05T12:25:04;1.77;;;0.60;;
4857;SDS011;58975;51.978;8.472;2022-07-05T12:30:03;2.28;;;0.90;;
4857;SDS011;58975;51.978;8.472;2022-07-05T12:35:01;0.45;;;0.45;;
4857;SDS011;58975;51.978;8.472;2022-07-05T12:40:03;0.75;;;0.55;;
4857;SDS011;58975;51.978;8.472;2022-07-05T12:45:08;0.60;;;0.50;;
4857;SDS011;58975;51.978;8.472;2022-07-05T12:50:11;3.22;;;0.75;;
4857;SDS011;58975;51.978;8.472;2022-07-05T12:55:11;2.83;;;0.50;;
4857;SDS011;58975;51.978;8.472;2022-07-05T13:00:27;2.75;;;0.70;;
4857;SDS011;58975;51.978;8.472;2022-07-05T13:05:24;0.90;;;0.60;;
4857;SDS011;58975;51.978;8.472;2022-07-05T13:10:22;1.25;;;0.50;;
4857;SDS011;58975;51.978;8.472;2022-07-05T13:15:20;1.00;;;0.60;;
4857;SDS011;58975;51.978;8.472;2022-07-05T13:20:18;0.93;;;0.37;;
4857;SDS011;58975;51.978;8.472;2022-07-05T13:25:16;0.93;;;0.50;;
4857;SDS011;58975;51.978;8.472;2022-07-05T13:30:13;0.95;;;0.75;;
4857;SDS011;58975;51.978;8.472;2022-07-05T13:35:10;0.88;;;0.75;;
4857;SDS011;58975;51.978;8.472;2022-07-05T13:45:04;1.00;;;0.67;;
4857;SDS011;58975;51.978;8.472;2022-07-05T13:50:01;1.85;;;0.40;;
4857;SDS011;58975;51.978;8.472;2022-07-05T13:55:16;0.95;;;0.50;;
4857;SDS011;58975;51.978;8.472;2022-07-05T14:00:13;1.77;;;0.80;;
4857;SDS011;58975;51.978;8.472;2022-07-05T14:05:10;2.00;;;0.68;;
4857;SDS011;58975;51.978;8.472;2022-07-05T14:10:06;1.95;;;0.55;;
4857;SDS011;58975;51.978;8.472;2022-07-05T14:15:03;1.37;;;0.70;;
4857;SDS011;58975;51.978;8.472;2022-07-05T14:20:00;0.80;;;0.60;;
4857;SDS011;58975;51.978;8.472;2022-07-05T14:24:56;3.67;;;0.67;;
4857;SDS011;58975;51.978;8.472;2022-07-05T14:29:53;2.70;;;0.80;;
4857;SDS011;58975;51.978;8.472;2022-07-05T14:34:50;2.57;;;0.70;;
4857;SDS011;58975;51.978;8.472;2022-07-05T14:39:46;1.60;;;0.50;;
4857;SDS011;58975;51.978;8.472;2022-07-05T14:44:43;0.50;;;0.50;;
4857;SDS011;58975;51.978;8.472;2022-07-05T14:49:40;2.15;;;0.85;;
4857;SDS011;58975;51.978;8.472;2022-07-05T14:54:36;1.50;;;0.73;;
4857;SDS011;58975;51.978;8.472;2022-07-05T14:59:33;3.45;;;0.80;;
4857;SDS011;58975;51.978;8.472;2022-07-05T15:04:30;5.87;;;0.77;;
4857;SDS011;58975;51.978;8.472;2022-07-05T15:09:26;1.67;;;0.60;;
4857;SDS011;58975;51.978;8.472;2022-07-05T15:14:22;0.77;;;0.47;;
4857;SDS011;58975;51.978;8.472;2022-07-05T15:19:19;2.35;;;0.68;;
4857;SDS011;58975;51.978;8.472;2022-07-05T15:24:16;0.93;;;0.40;;
4857;SDS011;58975;51.978;8.472;2022-07-05T15:34:10;0.60;;;0.47;;
4857;SDS011;58975;51.978;8.472;2022-07-05T15:39:08;2.88;;;0.90;;
4857;SDS011;58975;51.978;8.472;2022-07-05T15:44:04;0.88;;;0.52;;
4857;SDS011;58975;51.978;8.472;2022-07-05T15:49:01;5.63;;;0.70;;
4857;SDS011;58975;51.978;8.472;2022-07-05T15:53:58;1.38;;;0.75;;
4857;SDS011;58975;51.978;8.472;2022-07-05T15:58:54;2.67;;;0.82;;
4857;SDS011;58975;51.978;8.472;2022-07-05T16:03:51;1.33;;;0.60;;
4857;SDS011;58975;51.978;8.472;2022-07-05T16:08:47;3.40;;;0.70;;
4857;SDS011;58975;51.978;8.472;2022-07-05T16:13:44;1.40;;;0.77;;
4857;SDS011;58975;51.978;8.472;2022-07-05T16:18:41;2.97;;;0.40;;
4857;SDS011;58975;51.978;8.472;2022-07-05T16:23:40;1.50;;;0.40;;
4857;SDS011;58975;51.978;8.472;2022-07-05T16:28:38;3.10;;;1.35;;
4857;SDS011;58975;51.978;8.472;2022-07-05T16:33:37;1.40;;;0.80;;
4857;SDS011;58975;51.978;8.472;2022-07-05T16:38:36;2.55;;;0.82;;
4857;SDS011;58975;51.978;8.472;2022-07-05T16:43:33;1.73;;;0.85;;
4857;SDS011;58975;51.978;8.472;2022-07-05T16:48:32;1.67;;;0.50;;
4857;SDS011;58975;51.978;8.472;2022-07-05T16:53:29;1.47;;;0.80;;
4857;SDS011;58975;51.978;8.472;2022-07-05T16:58:26;8.02;;;0.70;;
4857;SDS011;58975;51.978;8.472;2022-07-05T17:03:22;1.10;;;0.70;;
4857;SDS011;58975;51.978;8.472;2022-07-05T17:08:19;1.57;;;0.80;;
4857;SDS011;58975;51.978;8.472;2022-07-05T17:13:15;3.67;;;0.80;;
4857;SDS011;58975;51.978;8.472;2022-07-05T17:18:12;1.50;;;1.00;;
4857;SDS011;58975;51.978;8.472;2022-07-05T17:23:09;3.55;;;0.68;;
4857;SDS011;58975;51.978;8.472;2022-07-05T17:28:06;2.47;;;0.85;;
4857;SDS011;58975;51.978;8.472;2022-07-05T17:33:03;1.67;;;0.90;;
4857;SDS011;58975;51.978;8.472;2022-07-05T17:37:59;4.47;;;1.17;;
4857;SDS011;58975;51.978;8.472;2022-07-05T17:42:56;3.28;;;0.82;;
4857;SDS011;58975;51.978;8.472;2022-07-05T17:47:52;2.45;;;0.70;;
4857;SDS011;58975;51.978;8.472;2022-07-05T17:52:49;4.75;;;1.30;;
4857;SDS011;58975;51.978;8.472;2022-07-05T17:57:45;2.45;;;0.57;;
4857;SDS011;58975;51.978;8.472;2022-07-05T18:02:42;6.68;;;1.10;;
4857;SDS011;58975;51.978;8.472;2022-07-05T18:07:46;5.55;;;2.00;;
4857;SDS011;58975;51.978;8.472;2022-07-05T18:12:43;2.67;;;1.00;;
4857;SDS011;58975;51.978;8.472;2022-07-05T18:17:39;3.50;;;0.90;;
4857;SDS011;58975;51.978;8.472;2022-07-05T18:22:36;1.35;;;0.68;;
4857;SDS011;58975;51.978;8.472;2022-07-05T18:27:32;4.97;;;0.70;;
4857;SDS011;58975;51.978;8.472;2022-07-05T18:32:29;2.17;;;0.90;;
4857;SDS011;58975;51.978;8.472;2022-07-05T18:37:27;3.95;;;1.02;;
4857;SDS011;58975;51.978;8.472;2022-07-05T18:42:23;2.00;;;0.73;;
4857;SDS011;58975;51.978;8.472;2022-07-05T18:47:20;2.35;;;0.60;;
4857;SDS011;58975;51.978;8.472;2022-07-05T18:52:16;5.40;;;0.80;;
4857;SDS011;58975;51.978;8.472;2022-07-05T18:57:14;2.28;;;0.70;;
4857;SDS011;58975;51.978;8.472;2022-07-05T19:02:10;2.15;;;0.75;;
4857;SDS011;58975;51.978;8.472;2022-07-05T19:07:08;2.05;;;0.50;;
4857;SDS011;58975;51.978;8.472;2022-07-05T19:12:24;1.70;;;0.70;;
4857;SDS011;58975;51.978;8.472;2022-07-05T19:17:39;1.65;;;0.82;;
4857;SDS011;58975;51.978;8.472;2022-07-05T19:22:35;2.28;;;0.60;;
4857;SDS011;58975;51.978;8.472;2022-07-05T19:27:32;4.00;;;0.77;;
4857;SDS011;58975;51.978;8.472;2022-07-05T19:32:29;5.72;;;0.65;;
4857;SDS011;58975;51.978;8.472;2022-07-05T19:37:25;0.80;;;0.60;;
4857;SDS011;58975;51.978;8.472;2022-07-05T19:42:22;4.43;;;0.80;;
4857;SDS011;58975;51.978;8.472;2022-07-05T19:47:19;3.60;;;0.57;;
4857;SDS011;58975;51.978;8.472;2022-07-05T19:52:15;4.10;;;0.68;;
4857;SDS011;58975;51.978;8.472;2022-07-05T19:57:12;2.33;;;0.50;;
4857;SDS011;58975;51.978;8.472;2022-07-05T20:02:08;6.05;;;0.80;;
4857;SDS011;58975;51.978;8.472;2022-07-05T20:07:05;6.35;;;0.85;;
4857;SDS011;58975;51.978;8.472;2022-07-05T20:12:01;1.45;;;0.75;;
4857;SDS011;58975;51.978;8.472;2022-07-05T20:16:58;0.65;;;0.50;;
4857;SDS011;58975;51.978;8.472;2022-07-05T20:22:05;4.18;;;0.70;;
4857;SDS011;58975;51.978;8.472;2022-07-05T20:27:02;6.65;;;1.17;;
4857;SDS011;58975;51.978;8.472;2022-07-05T20:32:06;3.55;;;0.73;;
4857;SDS011;58975;51.978;8.472;2022-07-05T20:37:02;1.45;;;0.68;;
4857;SDS011;58975;51.978;8.472;2022-07-05T20:41:59;0.80;;;0.80;;
4857;SDS011;58975;51.978;8.472;2022-07-05T20:46:55;2.15;;;0.80;;
4857;SDS011;58975;51.978;8.472;2022-07-05T20:51:52;1.65;;;0.73;;
4857;SDS011;58975;51.978;8.472;2022-07-05T20:56:49;1.52;;;0.90;;
4857;SDS011;58975;51.978;8.472;2022-07-05T21:01:45;2.85;;;0.80;;
4857;SDS011;58975;51.978;8.472;2022-07-05T21:06:42;1.43;;;0.60;;
4857;SDS011;58975;51.978;8.472;2022-07-05T21:11:39;2.25;;;0.80;;
4857;SDS011;58975;51.978;8.472;2022-07-05T21:16:35;2.47;;;0.88;;
4857;SDS011;58975;51.978;8.472;2022-07-05T21:21:32;5.03;;;0.90;;
4857;SDS011;58975;51.978;8.472;2022-07-05T21:26:29;2.13;;;0.70;;
4857;SDS011;58975;51.978;8.472;2022-07-05T21:31:25;0.80;;;0.55;;
4857;SDS011;58975;51.978;8.472;2022-07-05T21:36:22;1.40;;;0.60;;
4857;SDS011;58975;51.978;8.472;2022-07-05T21:41:18;5.72;;;1.27;;
4857;SDS011;58975;51.978;8.472;2022-07-05T21:46:15;3.03;;;1.00;;
4857;SDS011;58975;51.978;8.472;2022-07-05T21:51:11;2.00;;;0.77;;
4857;SDS011;58975;51.978;8.472;2022-07-05T21:56:08;0.70;;;0.70;;
4857;SDS011;58975;51.978;8.472;2022-07-05T22:01:04;4.57;;;1.00;;
4857;SDS011;58975;51.978;8.472;2022-07-05T22:06:21;2.78;;;0.80;;
4857;SDS011;58975;51.978;8.472;2022-07-05T22:11:17;2.78;;;0.90;;
4857;SDS011;58975;51.978;8.472;2022-07-05T22:16:32;2.17;;;0.77;;
4857;SDS011;58975;51.978;8.472;2022-07-05T22:21:29;2.60;;;1.17;;
4857;SDS011;58975;51.978;8.472;2022-07-05T22:26:25;2.78;;;0.70;;
4857;SDS011;58975;51.978;8.472;2022-07-05T22:31:28;1.52;;;0.70;;
4857;SDS011;58975;51.978;8.472;2022-07-05T22:36:25;5.80;;;1.25;;
4857;SDS011;58975;51.978;8.472;2022-07-05T22:41:21;2.47;;;0.73;;
4857;SDS011;58975;51.978;8.472;2022-07-05T22:46:18;8.27;;;1.08;;
4857;SDS011;58975;51.978;8.472;2022-07-05T22:51:14;2.17;;;0.80;;
4857;SDS011;58975;51.978;8.472;2022-07-05T22:56:11;2.15;;;0.80;;
4857;SDS011;58975;51.978;8.472;2022-07-05T23:01:08;2.80;;;0.95;;
4857;SDS011;58975;51.978;8.472;2022-07-05T23:06:04;3.90;;;1.00;;
4857;SDS011;58975;51.978;8.472;2022-07-05T23:11:01;4.85;;;1.00;;
4857;SDS011;58975;51.978;8.472;2022-07-05T23:15:57;3.03;;;0.80;;
4857;SDS011;58975;51.978;8.472;2022-07-05T23:20:54;2.78;;;0.85;;
4857;SDS011;58975;51.978;8.472;2022-07-05T23:25:50;0.98;;;0.60;;
4857;SDS011;58975;51.978;8.472;2022-07-05T23:30:47;2.95;;;0.95;;
4857;SDS011;58975;51.978;8.472;2022-07-05T23:35:43;1.63;;;0.82;;
4857;SDS011;58975;51.978;8.472;2022-07-05T23:40:40;0.60;;;0.60;;
4857;SDS011;58975;51.978;8.472;2022-07-05T23:45:36;2.38;;;1.23;;
4857;SDS011;58975;51.978;8.472;2022-07-05T23:50:33;2.22;;;0.70;;
4857;SDS011;58975;51.978;8.472;2022-07-05T23:55:29;3.33;;;0.60;;
